Time;durP1;ratioP1;P1;durP2;ratioP2;P2;SDS_P1;SDS_P2;PMS_P1;PMS_P2;Temp;Humidity;BMP_temperature;BMP_pressure;BME280_temperature;BME280_humidity;BME280_pressure;Samples;Min_cycle;Max_cycle;Signal;HPM_P1;HPM_P2
2021/12/15 00:00:45;;;;;;;;;;;6.70;99.90;;;;;;5053059;28;19999;-66
2021/12/15 00:03:11;;;;;;;;;;;7.00;99.90;;;;;;5052273;28;20019;-66
2021/12/15 00:05:36;;;;;;;;;;;6.90;99.90;;;;;;5052054;28;20351;-68
2021/12/15 00:08:04;;;;;;;;;;;7.40;99.90;;;;;;5052808;28;19905;-65
2021/12/15 00:10:30;;;;;;;;;;;6.70;99.90;;;;;;5052815;28;19999;-66
2021/12/15 00:12:56;;;;;;;;;;;6.10;99.90;;;;;;5052274;28;19940;-65
2021/12/15 00:15:23;;;;;;;;;;;6.60;99.90;;;;;;5052746;28;19905;-66
2021/12/15 00:17:49;;;;;;;;;;;6.60;99.90;;;;;;5034840;28;20291;-65
2021/12/15 00:20:15;;;;;;;;;;;6.40;99.90;;;;;;5052083;28;19917;-65
2021/12/15 00:22:41;;;;;;;;;;;6.60;99.90;;;;;;5052483;28;19970;-65
2021/12/15 00:25:08;;;;;;;;;;;6.60;99.90;;;;;;5051855;28;20370;-66
2021/12/15 00:27:34;;;;;;;;;;;6.70;99.90;;;;;;5052685;28;19905;-65
2021/12/15 00:29:59;;;;;;;;;;;7.70;99.90;;;;;;5052167;28;19951;-66
2021/12/15 00:32:25;;;;;;;;;;;6.80;99.90;;;;;;5052684;28;19912;-65
2021/12/15 00:34:51;;;;;;;;;;;6.70;99.90;;;;;;5051293;28;19959;-65
2021/12/15 00:37:17;;;;;;;;;;;6.70;99.90;;;;;;5052495;28;19916;-66
2021/12/15 00:39:43;;;;;;;;;;;5.90;99.90;;;;;;5052267;28;19909;-64
2021/12/15 00:42:09;;;;;;;;;;;6.70;99.90;;;;;;5052236;28;19967;-66
2021/12/15 00:44:35;;;;;;;;;;;6.40;99.90;;;;;;5051706;28;19905;-66
2021/12/15 00:47:01;;;;;;;;;;;6.70;99.90;;;;;;5052220;28;19912;-66
2021/12/15 00:49:26;;;;;;;;;;;7.00;99.90;;;;;;5051622;28;20334;-64
2021/12/15 00:51:52;;;;;;;;;;;6.00;99.90;;;;;;5051946;28;20020;-63
2021/12/15 00:54:18;;;;;;;;;;;7.10;99.90;;;;;;5051575;28;19940;-64
2021/12/15 00:56:44;;;;;;;;;;;6.60;99.90;;;;;;5051199;28;20368;-64
2021/12/15 00:59:10;;;;;;;;;;;6.70;99.90;;;;;;5056649;28;19908;-64
2021/12/15 01:01:36;;;;;;;;;;;6.80;99.90;;;;;;5053481;28;19908;-64
2021/12/15 01:04:03;;;;;;;;;;;5.50;99.90;;;;;;5050837;28;19912;-65
2021/12/15 01:06:29;;;;;;;;;;;6.70;99.90;;;;;;5051925;28;20441;-64
2021/12/15 01:09:01;;;;;;;;;;;7.40;99.90;;;;;;5052114;28;20284;-64
2021/12/15 01:14:34;;;;;;;;;;;6.70;99.90;;;;;;5050950;28;19916;-65
2021/12/15 01:19:54;;;;;;;;;;;6.10;99.90;;;;;;5051246;28;19915;-65
2021/12/15 01:22:27;;;;;;;;;;;7.60;99.90;;;;;;5051967;28;19912;-65
2021/12/15 01:24:54;;;;;;;;;;;6.30;99.90;;;;;;5036467;22;19928;-65
2021/12/15 01:27:21;;;;;;;;;;;6.70;99.90;;;;;;5007056;28;19909;-63
2021/12/15 01:29:46;;;;;;;;;;;7.00;99.90;;;;;;5014333;28;20282;-65
2021/12/15 01:32:12;;;;;;;;;;;7.50;99.90;;;;;;5012308;28;19959;-64
2021/12/15 01:34:37;;;;;;;;;;;6.90;99.90;;;;;;5011343;28;19913;-64
2021/12/15 01:37:04;;;;;;;;;;;6.70;99.90;;;;;;5011868;28;19905;-64
2021/12/15 01:39:29;;;;;;;;;;;6.50;99.90;;;;;;5011460;28;19913;-64
2021/12/15 01:41:56;;;;;;;;;;;5.90;99.90;;;;;;5011963;28;19905;-63
2021/12/15 01:49:21;;;;;;;;;;;5.80;99.90;;;;;;5012158;28;19975;-65
2021/12/15 01:51:46;;;;;;;;;;;7.10;99.90;;;;;;5010564;28;19967;-63
2021/12/15 01:54:14;;;;;;;;;;;7.90;99.90;;;;;;5010750;28;19909;-63
2021/12/15 01:56:40;;;;;;;;;;;6.60;99.90;;;;;;5011958;28;19905;-63
2021/12/15 01:59:06;;;;;;;;;;;7.30;99.90;;;;;;5011816;28;20390;-65
2021/12/15 02:01:32;;;;;;;;;;;5.40;99.90;;;;;;5011845;28;19914;-64
2021/12/15 02:03:58;;;;;;;;;;;6.80;99.90;;;;;;5011121;28;20387;-64
2021/12/15 02:06:24;;;;;;;;;;;;;;;;;;5011678;28;19958;-64
2021/12/15 02:08:49;;;;;;;;;;;;;;;;;;5011361;28;20325;-63
2021/12/15 02:11:16;;;;;;;;;;;7.10;99.90;;;;;;5011747;28;19937;-65
2021/12/15 02:13:41;;;;;;;;;;;6.60;99.90;;;;;;5011118;28;20009;-63
2021/12/15 02:16:07;;;;;;;;;;;5.40;99.90;;;;;;5011437;28;19940;-63
2021/12/15 02:18:34;;;;;;;;;;;6.30;99.90;;;;;;5011557;28;19913;-65
2021/12/15 02:21:03;;;;;;;;;;;6.20;99.90;;;;;;5011804;28;19944;-64
2021/12/15 02:23:36;;;;;;;;;;;6.00;99.90;;;;;;5010505;28;19909;-63
2021/12/15 02:26:02;;;;;;;;;;;;;;;;;;5011591;28;19910;-64
2021/12/15 02:28:28;;;;;;;;;;;6.30;99.90;;;;;;5014022;28;20422;-64
2021/12/15 02:30:59;;;;;;;;;;;6.80;99.90;;;;;;5015029;28;19933;-65
2021/12/15 02:33:45;;;;;;;;;;;6.60;99.90;;;;;;5014321;28;20318;-64
2021/12/15 02:38:55;;;;;;;;;;;6.30;99.90;;;;;;5015038;28;20051;-65
2021/12/15 02:41:23;;;;;;;;;;;8.00;99.90;;;;;;5015003;28;19988;-63
2021/12/15 02:43:49;;;;;;;;;;;6.60;99.90;;;;;;5013927;28;20371;-65
2021/12/15 02:46:15;;;;;;;;;;;5.80;99.90;;;;;;5014532;28;20416;-63
2021/12/15 02:48:41;;;;;;;;;;;6.70;99.90;;;;;;5014642;28;19905;-63
2021/12/15 02:51:07;;;;;;;;;;;;;;;;;;5014659;28;19905;-64
2021/12/15 02:53:32;;;;;;;;;;;6.70;99.90;;;;;;5013924;28;19912;-64
2021/12/15 02:55:58;;;;;;;;;;;6.70;99.90;;;;;;5014543;28;19905;-64
2021/12/15 02:58:24;;;;;;;;;;;7.50;99.90;;;;;;5014620;28;19909;-64
2021/12/15 03:06:12;;;;;;;;;;;5.70;99.90;;;;;;5014488;28;20320;-65
2021/12/15 03:16:38;;;;;;;;;;;5.80;99.90;;;;;;5014404;28;20012;-64
2021/12/15 03:19:04;;;;;;;;;;;6.50;99.90;;;;;;5014290;28;19964;-64
2021/12/15 03:21:29;;;;;;;;;;;6.40;99.90;;;;;;5014133;28;19948;-64
2021/12/15 03:23:57;;;;;;;;;;;5.90;99.90;;;;;;5013035;28;20032;-63
2021/12/15 03:26:26;;;;;;;;;;;6.00;99.90;;;;;;5014089;28;19941;-64
2021/12/15 03:39:22;;;;;;;;;;;5.80;99.90;;;;;;5012738;28;19916;-63
2021/12/15 03:41:55;;;;;;;;;;;7.00;99.90;;;;;;5013747;28;19924;-65
2021/12/15 03:44:21;;;;;;;;;;;5.10;99.90;;;;;;5013004;28;19933;-63
2021/12/15 03:46:46;;;;;;;;;;;5.90;99.90;;;;;;5013374;28;20336;-63
2021/12/15 03:49:12;;;;;;;;;;;6.20;99.90;;;;;;5013616;28;19912;-63
2021/12/15 03:51:37;;;;;;;;;;;6.60;99.90;;;;;;5014010;28;20000;-64
2021/12/15 03:54:04;;;;;;;;;;;6.00;99.90;;;;;;5012671;28;19960;-64
2021/12/15 03:56:30;;;;;;;;;;;7.80;99.90;;;;;;5013544;28;19913;-62
2021/12/15 03:58:56;;;;;;;;;;;6.80;99.90;;;;;;5013661;28;19909;-65
2021/12/15 04:01:23;;;;;;;;;;;6.80;99.90;;;;;;5013529;28;19910;-64
2021/12/15 04:03:53;;;;;;;;;;;6.60;99.90;;;;;;5016067;28;19906;-64
2021/12/15 04:06:23;;;;;;;;;;;6.40;99.90;;;;;;5020538;28;19905;-64
2021/12/15 04:08:50;;;;;;;;;;;7.20;99.90;;;;;;5021395;28;19947;-64
2021/12/15 04:11:17;;;;;;;;;;;7.30;99.90;;;;;;5017744;28;19963;-64
2021/12/15 04:13:46;;;;;;;;;;;7.70;99.90;;;;;;5026486;28;19906;-65
2021/12/15 04:16:26;;;;;;;;;;;7.10;99.90;;;;;;5033174;28;19909;-64
2021/12/15 04:18:52;;;;;;;;;;;6.30;99.90;;;;;;5024260;28;19963;-65
2021/12/15 04:21:17;;;;;;;;;;;7.00;99.90;;;;;;5013597;28;19905;-64
2021/12/15 04:23:48;;;;;;;;;;;6.40;99.90;;;;;;5012413;28;20350;-63
2021/12/15 04:26:13;;;;;;;;;;;7.60;99.90;;;;;;5012746;28;19913;-65
2021/12/15 04:28:39;;;;;;;;;;;7.40;99.90;;;;;;5013241;28;19906;-65
2021/12/15 04:31:05;;;;;;;;;;;;;;;;;;5013000;28;19916;-65
2021/12/15 04:33:37;;;;;;;;;;;7.00;99.90;;;;;;5012151;28;19913;-64
2021/12/15 04:36:05;;;;;;;;;;;7.60;99.90;;;;;;5014460;28;19959;-65
2021/12/15 04:38:31;;;;;;;;;;;7.00;99.90;;;;;;5015150;28;19905;-64
2021/12/15 04:40:59;;;;;;;;;;;6.80;99.90;;;;;;5011068;28;20319;-64
2021/12/15 04:43:29;;;;;;;;;;;7.00;99.90;;;;;;5012026;28;19905;-65
2021/12/15 04:45:55;;;;;;;;;;;6.90;99.90;;;;;;5012726;28;19909;-64
2021/12/15 04:48:21;;;;;;;;;;;5.20;99.90;;;;;;5012600;28;19906;-65
2021/12/15 04:50:46;;;;;;;;;;;7.20;99.90;;;;;;5012260;28;19905;-65
2021/12/15 04:53:12;;;;;;;;;;;6.30;99.90;;;;;;5011786;28;20050;-63
2021/12/15 04:55:38;;;;;;;;;;;6.50;99.90;;;;;;5012182;28;20056;-64
2021/12/15 04:58:05;;;;;;;;;;;5.70;99.90;;;;;;5012579;28;19912;-63
2021/12/15 05:00:31;;;;;;;;;;;6.30;99.90;;;;;;5012485;28;19913;-64
2021/12/15 05:02:58;;;;;;;;;;;7.60;99.90;;;;;;5011744;28;19948;-63
2021/12/15 05:05:24;;;;;;;;;;;7.20;99.90;;;;;;5011960;28;19910;-63
2021/12/15 05:07:50;;;;;;;;;;;7.00;99.90;;;;;;5012241;28;19912;-64
2021/12/15 05:10:16;;;;;;;;;;;;;;;;;;5011884;28;19905;-64
2021/12/15 05:12:42;;;;;;;;;;;6.70;99.90;;;;;;5012466;28;19952;-64
2021/12/15 05:15:08;;;;;;;;;;;7.30;99.90;;;;;;5011524;28;19931;-64
2021/12/15 05:17:34;;;;;;;;;;;6.90;99.90;;;;;;5012248;28;19912;-63
2021/12/15 05:20:03;;;;;;;;;;;6.30;99.90;;;;;;5012705;28;20000;-63
2021/12/15 05:22:29;;;;;;;;;;;7.00;99.90;;;;;;5012553;28;19982;-63
2021/12/15 05:24:54;;;;;;;;;;;6.50;99.90;;;;;;4982883;28;20574;-68
2021/12/15 05:27:21;;;;;;;;;;;6.90;99.90;;;;;;4980486;28;19910;-68
2021/12/15 05:29:47;;;;;;;;;;;7.00;99.90;;;;;;4991873;28;19912;-68
2021/12/15 05:32:17;;;;;;;;;;;6.10;99.90;;;;;;4988771;28;19905;-69
2021/12/15 05:34:42;;;;;;;;;;;7.40;99.90;;;;;;4991792;28;19906;-68
2021/12/15 05:37:08;;;;;;;;;;;6.50;99.90;;;;;;4991821;28;19910;-68
2021/12/15 05:39:34;;;;;;;;;;;6.50;99.90;;;;;;4992295;28;19933;-69
2021/12/15 05:41:59;;;;;;;;;;;6.70;99.90;;;;;;4992400;28;19917;-68
2021/12/15 05:44:25;;;;;;;;;;;5.60;99.90;;;;;;4991699;28;20004;-68
2021/12/15 05:46:54;;;;;;;;;;;6.40;99.90;;;;;;4992166;28;19906;-68
2021/12/15 05:49:20;;;;;;;;;;;6.70;99.90;;;;;;4992415;28;19999;-69
2021/12/15 05:51:45;;;;;;;;;;;6.40;99.90;;;;;;4992476;28;19906;-67
2021/12/15 05:54:11;;;;;;;;;;;7.00;99.90;;;;;;4997446;28;19995;-69
2021/12/15 05:56:37;;;;;;;;;;;6.40;99.90;;;;;;5011060;28;19905;-68
2021/12/15 05:59:04;;;;;;;;;;;5.80;99.90;;;;;;5006240;28;19910;-68
2021/12/15 06:01:29;;;;;;;;;;;6.40;99.90;;;;;;4992212;28;19905;-69
2021/12/15 06:03:55;;;;;;;;;;;6.40;99.90;;;;;;4995124;28;20225;-69
2021/12/15 06:06:20;;;;;;;;;;;6.70;99.90;;;;;;4995186;28;20004;-69
2021/12/15 06:08:46;;;;;;;;;;;6.00;99.90;;;;;;4995867;28;20372;-70
2021/12/15 06:11:12;;;;;;;;;;;6.80;99.90;;;;;;4996145;28;20287;-66
2021/12/15 06:13:37;;;;;;;;;;;6.80;99.90;;;;;;4995359;28;19913;-70
2021/12/15 06:16:05;;;;;;;;;;;6.60;99.90;;;;;;4995586;28;19909;-73
2021/12/15 06:18:31;;;;;;;;;;;7.10;99.90;;;;;;4996292;28;19906;-73
2021/12/15 06:20:57;;;;;;;;;;;6.60;99.90;;;;;;5013904;28;19932;-73
2021/12/15 06:23:22;;;;;;;;;;;6.50;99.90;;;;;;5014643;28;19951;-67
2021/12/15 06:25:53;;;;;;;;;;;6.80;99.90;;;;;;4993736;28;19942;-69
2021/12/15 06:28:20;;;;;;;;;;;6.70;99.90;;;;;;4995731;28;19959;-71
2021/12/15 06:30:45;;;;;;;;;;;7.10;99.90;;;;;;4995911;28;20284;-69
2021/12/15 06:33:12;;;;;;;;;;;6.60;99.90;;;;;;4995365;28;19917;-69
2021/12/15 06:35:37;;;;;;;;;;;6.20;99.90;;;;;;4995593;28;20377;-70
2021/12/15 06:38:04;;;;;;;;;;;6.50;99.90;;;;;;4995885;28;19906;-70
2021/12/15 06:40:30;;;;;;;;;;;6.80;99.90;;;;;;4995386;28;19957;-70
2021/12/15 06:42:55;;;;;;;;;;;6.50;99.90;;;;;;4994776;28;19999;-69
2021/12/15 06:45:28;;;;;;;;;;;6.40;99.90;;;;;;4995270;28;19906;-70
2021/12/15 06:58:50;;;;;;;;;;;6.40;99.90;;;;;;4973684;28;19913;-64
2021/12/15 07:01:16;;;;;;;;;;;6.40;99.90;;;;;;4975842;28;20256;-64
2021/12/15 07:03:42;;;;;;;;;;;6.60;99.90;;;;;;4973838;28;19910;-67
2021/12/15 07:06:07;;;;;;;;;;;6.40;99.90;;;;;;4973629;28;19913;-64
2021/12/15 07:08:33;;;;;;;;;;;6.50;99.90;;;;;;4975558;28;19950;-64
2021/12/15 07:11:00;;;;;;;;;;;6.80;99.90;;;;;;4975242;28;20012;-66
2021/12/15 07:13:26;;;;;;;;;;;6.50;99.90;;;;;;4974724;28;19906;-64
2021/12/15 07:15:59;;;;;;;;;;;6.50;99.90;;;;;;4974931;28;20395;-64
2021/12/15 07:18:28;;;;;;;;;;;6.50;99.90;;;;;;4975555;28;19996;-65
2021/12/15 07:20:54;;;;;;;;;;;7.30;99.90;;;;;;5002691;28;20004;-64
2021/12/15 07:23:21;;;;;;;;;;;6.70;99.90;;;;;;4994071;28;19913;-64
2021/12/15 07:25:47;;;;;;;;;;;6.40;99.90;;;;;;5012491;28;19913;-65
2021/12/15 07:28:14;;;;;;;;;;;6.40;99.90;;;;;;5039046;23;19920;-68
2021/12/15 07:30:39;;;;;;;;;;;7.60;99.90;;;;;;5045266;28;19905;-68
2021/12/15 07:33:06;;;;;;;;;;;5.60;99.90;;;;;;5051772;28;20254;-59
2021/12/15 07:35:32;;;;;;;;;;;6.90;99.90;;;;;;5053539;28;19912;-60
2021/12/15 07:37:58;;;;;;;;;;;6.40;99.90;;;;;;5053020;28;19904;-63
2021/12/15 07:40:24;;;;;;;;;;;6.00;99.90;;;;;;5053719;28;19915;-57
2021/12/15 07:43:04;;;;;;;;;;;6.50;99.90;;;;;;5052932;28;19905;-59
2021/12/15 07:45:31;;;;;;;;;;;6.40;99.90;;;;;;5053464;28;19935;-60
2021/12/15 07:47:57;;;;;;;;;;;6.80;99.90;;;;;;5053230;28;19963;-60
2021/12/15 07:50:23;;;;;;;;;;;6.20;99.90;;;;;;5053379;28;19905;-59
2021/12/15 07:52:50;;;;;;;;;;;5.70;99.90;;;;;;5053788;28;20337;-60
2021/12/15 07:55:16;;;;;;;;;;;6.90;99.90;;;;;;5052684;28;19912;-60
2021/12/15 07:57:41;;;;;;;;;;;6.40;99.90;;;;;;5046155;28;19906;-60
2021/12/15 08:00:08;;;;;;;;;;;6.60;99.90;;;;;;5033052;28;20287;-59
2021/12/15 08:02:34;;;;;;;;;;;6.50;99.90;;;;;;5033447;28;19947;-60
2021/12/15 08:04:59;;;;;;;;;;;6.50;99.90;;;;;;5031768;28;19948;-60
2021/12/15 08:07:25;;;;;;;;;;;6.60;99.90;;;;;;5032902;28;19963;-59
2021/12/15 08:09:51;;;;;;;;;;;6.60;99.90;;;;;;5032678;28;19905;-58
2021/12/15 08:12:16;;;;;;;;;;;6.30;99.90;;;;;;5032456;28;19909;-60
2021/12/15 08:14:42;;;;;;;;;;;6.30;99.90;;;;;;5032423;28;19951;-59
2021/12/15 08:17:08;;;;;;;;;;;6.30;99.90;;;;;;5033017;28;19905;-61
2021/12/15 08:19:33;;;;;;;;;;;6.50;99.90;;;;;;5031886;28;20003;-61
2021/12/15 08:21:59;;;;;;;;;;;6.00;99.90;;;;;;5032997;28;19960;-60
2021/12/15 08:24:25;;;;;;;;;;;6.30;99.90;;;;;;5032542;28;19963;-61
2021/12/15 08:26:50;;;;;;;;;;;6.30;99.90;;;;;;5032234;28;19905;-60
2021/12/15 08:29:16;;;;;;;;;;;6.50;99.90;;;;;;5032335;28;19913;-59
2021/12/15 08:31:42;;;;;;;;;;;6.00;99.90;;;;;;5032396;28;20390;-61
2021/12/15 08:34:08;;;;;;;;;;;6.30;99.90;;;;;;5031926;28;19912;-62
2021/12/15 08:36:34;;;;;;;;;;;6.30;99.90;;;;;;5032647;28;20007;-60
2021/12/15 08:39:00;;;;;;;;;;;6.50;99.90;;;;;;5032249;28;20378;-61
2021/12/15 08:41:27;;;;;;;;;;;5.30;99.90;;;;;;5032566;28;19905;-59
2021/12/15 08:43:53;;;;;;;;;;;6.40;99.90;;;;;;5031396;28;19927;-61
2021/12/15 08:46:25;;;;;;;;;;;6.30;99.90;;;;;;5032502;28;20008;-60
2021/12/15 08:48:50;;;;;;;;;;;6.30;99.90;;;;;;5032436;28;19912;-60
2021/12/15 08:51:18;;;;;;;;;;;7.30;99.90;;;;;;5032739;28;19909;-60
2021/12/15 08:53:44;;;;;;;;;;;6.20;99.90;;;;;;5032014;28;19905;-60
2021/12/15 08:56:11;;;;;;;;;;;6.20;99.90;;;;;;5032390;28;19912;-59
2021/12/15 08:58:37;;;;;;;;;;;6.60;99.90;;;;;;5018023;28;19916;-59
2021/12/15 09:01:03;;;;;;;;;;;5.60;99.90;;;;;;5013059;28;19913;-61
2021/12/15 09:03:29;;;;;;;;;;;;;;;;;;5012126;28;19967;-60
2021/12/15 09:05:55;;;;;;;;;;;5.90;99.90;;;;;;5012271;28;19905;-65
2021/12/15 09:08:22;;;;;;;;;;;5.80;99.90;;;;;;5012607;28;19951;-64
2021/12/15 09:10:48;;;;;;;;;;;;;;;;;;5012299;28;19910;-64
2021/12/15 09:13:14;;;;;;;;;;;6.60;99.90;;;;;;5011514;28;19968;-64
2021/12/15 09:15:41;;;;;;;;;;;5.30;99.90;;;;;;5012269;28;19948;-69
2021/12/15 09:18:06;;;;;;;;;;;6.20;99.90;;;;;;5012088;28;19914;-64
2021/12/15 09:20:32;;;;;;;;;;;6.30;99.90;;;;;;5012444;28;19909;-64
2021/12/15 09:22:59;;;;;;;;;;;6.20;99.90;;;;;;5011651;28;19967;-64
2021/12/15 09:25:25;;;;;;;;;;;6.30;99.90;;;;;;5012390;28;19936;-64
2021/12/15 09:27:50;;;;;;;;;;;5.80;99.90;;;;;;5019613;28;20397;-65
2021/12/15 09:30:18;;;;;;;;;;;6.50;99.90;;;;;;5031642;28;19955;-64
2021/12/15 09:32:44;;;;;;;;;;;5.40;99.90;;;;;;5031688;28;19908;-64
2021/12/15 09:35:10;;;;;;;;;;;5.60;99.90;;;;;;5031316;28;19905;-63
2021/12/15 09:37:36;;;;;;;;;;;6.40;99.90;;;;;;5033210;28;19905;-64
2021/12/15 09:40:03;;;;;;;;;;;6.20;99.90;;;;;;5035518;28;19909;-65
2021/12/15 09:42:33;;;;;;;;;;;6.00;99.90;;;;;;5035477;28;19992;-63
2021/12/15 09:45:15;;;;;;;;;;;6.30;99.90;;;;;;5034850;28;19905;-63
2021/12/15 09:47:58;;;;;;;;;;;6.50;99.90;;;;;;5035702;28;19905;-64
2021/12/15 10:06:51;;;;;;;;;;;7.40;99.90;;;;;;5035760;28;19905;-64
2021/12/15 10:19:56;;;;;;;;;;;5.40;99.90;;;;;;5034801;28;19939;-63
2021/12/15 10:22:50;;;;;;;;;;;6.10;99.90;;;;;;5034970;28;19908;-62
2021/12/15 10:25:15;;;;;;;;;;;5.90;99.90;;;;;;5034040;28;19951;-64
2021/12/15 10:27:49;;;;;;;;;;;6.10;99.90;;;;;;5034403;28;20006;-63
2021/12/15 10:30:26;;;;;;;;;;;6.50;99.90;;;;;;5035287;28;19912;-64
2021/12/15 10:32:57;;;;;;;;;;;6.30;99.90;;;;;;5033492;28;20375;-62
2021/12/15 10:35:30;;;;;;;;;;;6.10;99.90;;;;;;5034943;28;20355;-66
2021/12/15 10:38:10;;;;;;;;;;;5.70;99.90;;;;;;5036492;28;20278;-64
2021/12/15 10:40:37;;;;;;;;;;;;;;;;;;5036519;28;19936;-64
2021/12/15 10:43:04;;;;;;;;;;;6.10;99.90;;;;;;5033945;28;19905;-64
2021/12/15 10:45:41;;;;;;;;;;;5.90;99.90;;;;;;5034589;28;20310;-64
2021/12/15 10:48:15;;;;;;;;;;;5.90;99.90;;;;;;5033894;28;19909;-65
2021/12/15 10:50:42;;;;;;;;;;;5.70;99.90;;;;;;5033404;28;20319;-64
2021/12/15 10:53:08;;;;;;;;;;;6.00;99.90;;;;;;5033533;28;19915;-64
2021/12/15 10:55:35;;;;;;;;;;;6.20;99.90;;;;;;5033646;28;20391;-65
2021/12/15 10:58:21;;;;;;;;;;;6.00;99.90;;;;;;5035083;28;19905;-72
2021/12/15 11:00:46;;;;;;;;;;;5.90;99.90;;;;;;5036330;28;20513;-72
2021/12/15 11:03:16;;;;;;;;;;;6.10;99.90;;;;;;5034411;28;19996;-72
2021/12/15 11:05:42;;;;;;;;;;;6.10;99.90;;;;;;5034131;28;19912;-70
2021/12/15 11:08:07;;;;;;;;;;;6.50;99.90;;;;;;5033759;28;19909;-72
2021/12/15 11:10:34;;;;;;;;;;;6.10;99.90;;;;;;5033806;28;20698;-69
2021/12/15 11:13:02;;;;;;;;;;;6.30;99.90;;;;;;5033472;28;19905;-69
2021/12/15 11:15:40;;;;;;;;;;;6.20;99.90;;;;;;5034585;28;19917;-69
2021/12/15 11:18:17;;;;;;;;;;;6.40;99.90;;;;;;5027333;28;19916;-71
2021/12/15 11:20:56;;;;;;;;;;;6.40;99.90;;;;;;5033854;28;19955;-70
2021/12/15 11:23:23;;;;;;;;;;;6.10;99.90;;;;;;5033073;28;20385;-69
2021/12/15 11:25:49;;;;;;;;;;;6.70;99.90;;;;;;5033733;28;19995;-68
2021/12/15 11:28:35;;;;;;;;;;;6.90;99.90;;;;;;5032898;28;19948;-69
2021/12/15 11:31:07;;;;;;;;;;;6.20;99.90;;;;;;5032538;28;19913;-69
2021/12/15 11:33:39;;;;;;;;;;;6.30;99.90;;;;;;5032396;28;19909;-69
2021/12/15 11:36:11;;;;;;;;;;;6.40;99.90;;;;;;5033876;28;19916;-70
2021/12/15 11:38:38;;;;;;;;;;;6.10;99.90;;;;;;5031935;28;20298;-70
2021/12/15 11:41:06;;;;;;;;;;;6.50;99.90;;;;;;5034024;28;19959;-70
2021/12/15 11:43:34;;;;;;;;;;;6.50;99.90;;;;;;5032875;28;19909;-68
2021/12/15 11:46:01;;;;;;;;;;;6.90;99.90;;;;;;5033011;28;19944;-64
2021/12/15 11:48:29;;;;;;;;;;;6.90;99.90;;;;;;5033389;28;19908;-63
2021/12/15 11:50:56;;;;;;;;;;;6.80;99.90;;;;;;5034135;28;20355;-64
2021/12/15 11:53:28;;;;;;;;;;;6.40;99.90;;;;;;5035058;28;19909;-64
2021/12/15 11:55:54;;;;;;;;;;;6.30;99.90;;;;;;5044277;28;19909;-64
2021/12/15 11:58:30;;;;;;;;;;;6.40;99.90;;;;;;5033192;28;20282;-64
2021/12/15 12:00:55;;;;;;;;;;;6.20;99.90;;;;;;5032259;28;19991;-65
2021/12/15 12:03:21;;;;;;;;;;;6.40;99.90;;;;;;5031926;28;20364;-65
2021/12/15 12:05:47;;;;;;;;;;;7.00;99.90;;;;;;5032629;28;19915;-65
2021/12/15 12:08:12;;;;;;;;;;;6.60;99.90;;;;;;5031503;28;20633;-65
2021/12/15 12:10:48;;;;;;;;;;;6.20;99.90;;;;;;5032412;28;19905;-67
2021/12/15 12:13:21;;;;;;;;;;;6.40;99.90;;;;;;5031755;28;19936;-67
2021/12/15 12:15:49;;;;;;;;;;;6.40;99.90;;;;;;5032666;28;20395;-70
2021/12/15 12:18:16;;;;;;;;;;;6.70;99.90;;;;;;5032541;28;19912;-67
2021/12/15 12:20:43;;;;;;;;;;;6.50;99.90;;;;;;5032681;28;20267;-71
2021/12/15 12:23:10;;;;;;;;;;;6.20;99.90;;;;;;5031805;28;20427;-68
2021/12/15 12:25:40;;;;;;;;;;;6.20;99.90;;;;;;5031967;28;20352;-72
2021/12/15 12:28:07;;;;;;;;;;;7.20;99.90;;;;;;5031951;28;19966;-73
2021/12/15 12:30:36;;;;;;;;;;;5.90;99.90;;;;;;5032353;28;19924;-66
2021/12/15 12:33:04;;;;;;;;;;;6.50;99.90;;;;;;5031594;28;19912;-67
2021/12/15 12:35:31;;;;;;;;;;;6.80;99.90;;;;;;5031646;28;20331;-67
2021/12/15 12:37:59;;;;;;;;;;;6.80;99.90;;;;;;5031761;28;20473;-65
2021/12/15 12:40:29;;;;;;;;;;;6.80;99.90;;;;;;5032095;28;20501;-70
2021/12/15 12:42:55;;;;;;;;;;;6.30;99.90;;;;;;5031378;28;19912;-67
2021/12/15 12:45:36;;;;;;;;;;;6.40;99.90;;;;;;5032059;28;20294;-72
2021/12/15 12:48:29;;;;;;;;;;;6.30;99.90;;;;;;5031945;28;19912;-66
2021/12/15 12:57:55;;;;;;;;;;;6.30;99.90;;;;;;5030322;28;20363;-66
2021/12/15 12:59:38;;;;;;;;;;;6.50;99.90;;;;;;5023186;28;20434;-67
2021/12/15 13:02:10;;;;;;;;;;;6.50;99.90;;;;;;5016630;28;20387;-67
2021/12/15 13:04:42;;;;;;;;;;;6.90;99.90;;;;;;5020683;28;20043;-67
2021/12/15 13:07:09;;;;;;;;;;;6.50;99.90;;;;;;5012582;28;20346;-63
2021/12/15 13:09:46;;;;;;;;;;;6.30;99.90;;;;;;5021320;28;19932;-64
2021/12/15 13:12:19;;;;;;;;;;;6.60;99.90;;;;;;5031521;28;20593;-62
2021/12/15 13:14:45;;;;;;;;;;;6.50;99.90;;;;;;5011863;28;19913;-64
2021/12/15 13:17:19;;;;;;;;;;;6.60;99.90;;;;;;5011550;28;19905;-65
2021/12/15 13:19:45;;;;;;;;;;;6.60;99.90;;;;;;5011282;28;20371;-65
2021/12/15 13:22:29;;;;;;;;;;;6.60;99.90;;;;;;5014055;28;19951;-64
2021/12/15 13:30:30;;;;;;;;;;;6.30;99.90;;;;;;5047340;23;19944;-72
2021/12/15 13:33:02;;;;;;;;;;;6.60;99.90;;;;;;5036838;28;19924;-73
2021/12/15 13:35:34;;;;;;;;;;;6.40;99.90;;;;;;5030857;28;20255;-72
2021/12/15 13:38:02;;;;;;;;;;;6.30;99.90;;;;;;5030887;28;19905;-72
2021/12/15 13:40:54;;;;;;;;;;;5.90;99.90;;;;;;5030848;28;19913;-72
2021/12/15 13:43:38;;;;;;;;;;;6.40;99.90;;;;;;5027441;28;20267;-74
2021/12/15 13:46:05;;;;;;;;;;;7.80;99.90;;;;;;5034410;28;19944;-73
2021/12/15 13:48:50;;;;;;;;;;;6.40;99.90;;;;;;5032472;28;20359;-72
2021/12/15 13:51:15;;;;;;;;;;;6.40;99.90;;;;;;5030954;28;20277;-74
2021/12/15 13:53:41;;;;;;;;;;;7.00;99.90;;;;;;5030626;28;19905;-72
2021/12/15 13:56:06;;;;;;;;;;;6.80;99.90;;;;;;5031326;28;19905;-72
2021/12/15 13:58:32;;;;;;;;;;;6.50;99.90;;;;;;5029399;28;19926;-69
2021/12/15 14:01:01;;;;;;;;;;;6.30;99.90;;;;;;5031541;28;19909;-71
2021/12/15 14:03:32;;;;;;;;;;;6.60;99.90;;;;;;5031413;28;19909;-70
2021/12/15 14:06:03;;;;;;;;;;;6.40;99.90;;;;;;5032176;28;19905;-69
2021/12/15 14:08:34;;;;;;;;;;;6.60;99.90;;;;;;5032256;28;19905;-69
2021/12/15 14:11:02;;;;;;;;;;;6.90;99.90;;;;;;5031275;28;19961;-69
2021/12/15 14:13:40;;;;;;;;;;;6.50;99.90;;;;;;5029653;28;19905;-70
2021/12/15 14:16:06;;;;;;;;;;;6.80;99.90;;;;;;5031350;28;19909;-69
2021/12/15 14:18:32;;;;;;;;;;;6.60;99.90;;;;;;5031556;28;19948;-69
2021/12/15 14:21:05;;;;;;;;;;;6.30;99.90;;;;;;5030588;28;20000;-69
2021/12/15 14:23:33;;;;;;;;;;;6.50;99.90;;;;;;5031350;28;19905;-68
2021/12/15 14:25:59;;;;;;;;;;;6.30;99.90;;;;;;5035326;28;19971;-69
2021/12/15 14:28:25;;;;;;;;;;;;;;;;;;5034868;28;19905;-70
2021/12/15 14:31:11;;;;;;;;;;;5.90;99.90;;;;;;5034557;28;19913;-68
2021/12/15 14:33:38;;;;;;;;;;;6.40;99.90;;;;;;5023614;28;19912;-68
2021/12/15 14:36:09;;;;;;;;;;;6.70;99.90;;;;;;5034717;28;19905;-69
2021/12/15 14:38:41;;;;;;;;;;;6.20;99.90;;;;;;5034357;28;19909;-70
2021/12/15 14:41:08;;;;;;;;;;;6.80;99.90;;;;;;5034702;28;19913;-68
2021/12/15 14:43:34;;;;;;;;;;;6.00;99.90;;;;;;5033985;28;19905;-69
2021/12/15 14:46:00;;;;;;;;;;;6.90;99.90;;;;;;5034894;28;20394;-69
2021/12/15 14:48:25;;;;;;;;;;;5.90;99.90;;;;;;5034523;28;19909;-69
2021/12/15 14:50:51;;;;;;;;;;;6.30;99.90;;;;;;5034568;28;19909;-69
2021/12/15 14:53:16;;;;;;;;;;;6.90;99.90;;;;;;5033691;28;19905;-69
2021/12/15 14:55:42;;;;;;;;;;;;;;;;;;5034538;28;19909;-67
2021/12/15 14:58:17;;;;;;;;;;;6.30;99.90;;;;;;5026693;28;19905;-73
2021/12/15 15:00:42;;;;;;;;;;;6.00;99.90;;;;;;5048708;28;19912;-74
2021/12/15 15:03:08;;;;;;;;;;;6.90;99.90;;;;;;5035353;28;19905;-73
2021/12/15 15:05:36;;;;;;;;;;;6.90;99.90;;;;;;5053234;28;20397;-72
2021/12/15 15:08:04;;;;;;;;;;;7.00;99.90;;;;;;5053644;28;19955;-73
2021/12/15 15:10:31;;;;;;;;;;;6.10;99.90;;;;;;5053266;28;19904;-72
2021/12/15 15:12:57;;;;;;;;;;;6.20;99.90;;;;;;5053049;28;20294;-78
2021/12/15 15:15:28;;;;;;;;;;;7.30;99.90;;;;;;5051394;28;19908;-74
2021/12/15 15:18:12;;;;;;;;;;;6.20;99.90;;;;;;5034267;28;20297;-77
2021/12/15 15:20:43;;;;;;;;;;;6.50;99.90;;;;;;5033864;28;19917;-78
2021/12/15 15:23:10;;;;;;;;;;;6.30;99.90;;;;;;5034430;28;19967;-79
2021/12/15 15:25:36;;;;;;;;;;;;;;;;;;5035605;28;19948;-79
2021/12/15 15:28:04;;;;;;;;;;;5.90;99.90;;;;;;5034378;28;19916;-77
2021/12/15 15:30:31;;;;;;;;;;;6.10;99.90;;;;;;5022754;28;19920;-75
2021/12/15 15:32:59;;;;;;;;;;;6.70;99.90;;;;;;5022208;28;20452;-79
2021/12/15 15:35:29;;;;;;;;;;;5.60;99.90;;;;;;5034021;28;19999;-81
2021/12/15 15:37:56;;;;;;;;;;;4.60;99.90;;;;;;5042031;28;19913;-79
2021/12/15 15:40:21;;;;;;;;;;;5.90;99.90;;;;;;5060051;28;19912;-81
2021/12/15 15:42:51;;;;;;;;;;;6.60;99.90;;;;;;5074653;28;19964;-80
2021/12/15 15:45:25;;;;;;;;;;;5.90;99.90;;;;;;5058952;28;19897;-80
2021/12/15 15:47:51;;;;;;;;;;;6.00;99.90;;;;;;5049933;28;19947;-80
2021/12/15 15:50:17;;;;;;;;;;;;;;;;;;5032830;28;19913;-81
2021/12/15 15:52:47;;;;;;;;;;;6.00;99.90;;;;;;5037597;28;19905;-79
2021/12/15 15:55:12;;;;;;;;;;;6.50;99.90;;;;;;5033307;28;19922;-78
2021/12/15 15:57:38;;;;;;;;;;;6.10;99.90;;;;;;5033907;28;19912;-78
2021/12/15 16:00:05;;;;;;;;;;;6.70;99.90;;;;;;5029508;28;20289;-78
2021/12/15 16:02:31;;;;;;;;;;;6.60;99.90;;;;;;5032470;28;19909;-79
2021/12/15 16:05:01;;;;;;;;;;;5.50;99.90;;;;;;5033714;28;19916;-80